Accueil
METAR-TAF:

METAR-TAF

Aéroports :

Vadodara, Inde

latitude: 22-19-46N, longitude: 73-13-10E, altitude: 39 m

Observation

Le bulletin a été fait il y a 11 heures et 22 minutes, à 15:00 UTC
Vent 6 kt de ouest/sud-ouest
Température 31°C
Humidité 38%
Pression 1008 hPa
Visibilité: 6000 m

METAR: VABO 071500Z 25006KT 6000 NSC 31/15 Q1008 NOSIG

Heure: 07:52 (02:22 UTC)

Prévision

Le bulletin a été fait il y a 3 heures et 22 minutes, à 23:00 UTC
Prévision valable du 08 à 00 UTC au 08 à 09 UTC
Vent 3 kt de sud-ouest
Visibilité: 6000 m
Evoluant progressivement
du 08 à 01 UTC au 08 à 03 UTC
Vent 3 kt de ouest
Visibilité: 4000 m
fumée
Evoluant progressivement
du 08 à 04 UTC au 08 à 06 UTC
Vent 6 kt de ouest
Visibilité: 6000 m

TAF: VABO 072300Z 0800/0809 23003KT 6000 NSC BECMG 0801/0803 27003KT 4000 FU BECMG 0804/0806 27006KT 6000

Observations et prévisions météorologiques de plus de 4000 aéroports (messages METAR et TAF).

Les stations disponibles sont représentées par des disques jaunes et rouges sur la carte.

Passer la souris dessus pour voir le nom de la station.

Cliquer dessus pour voir les observations et prévisions météorologiques.

Pour changer de carte: cliquez sur les boutons verts avec une croix noire pour zoomer, sur le bouton vert avec un tiret pour effectuer un zoom arrière, ou sur les flèches vertes pour les cartes adjacentes.


METAR-TAF: